createdAt,value
2023-04-12T00:01:44.649Z,6.28
2023-04-12T00:04:11.326Z,6.30
2023-04-12T00:06:37.903Z,8.38
2023-04-12T00:09:04.456Z,7.50
2023-04-12T00:11:31.805Z,5.75
2023-04-12T00:13:58.534Z,5.18
2023-04-12T00:16:26.856Z,7.60
2023-04-12T00:18:53.853Z,7.30
2023-04-12T00:21:20.413Z,7.53
2023-04-12T00:23:47.011Z,10.48
2023-04-12T00:26:13.745Z,6.60
2023-04-12T00:28:42.224Z,5.85
2023-04-12T00:31:08.930Z,5.30
2023-04-12T00:33:36.898Z,6.22
2023-04-12T00:36:03.923Z,6.45
2023-04-12T00:38:30.539Z,3.42
2023-04-12T00:40:57.544Z,5.00
2023-04-12T00:43:24.154Z,5.50
2023-04-12T00:45:50.847Z,5.70
2023-04-12T00:48:17.671Z,4.55
2023-04-12T00:50:46.004Z,5.75
2023-04-12T00:53:13.574Z,4.43
2023-04-12T00:55:41.772Z,7.68
2023-04-12T00:58:08.401Z,4.20
2023-04-12T01:00:34.996Z,4.20
2023-04-12T01:03:02.156Z,4.80
2023-04-12T01:05:29.759Z,5.75
2023-04-12T01:08:09.107Z,5.25
2023-04-12T01:10:43.794Z,4.20
2023-04-12T01:13:21.406Z,4.90
2023-04-12T01:15:58.422Z,6.15
2023-04-12T01:18:29.745Z,6.90
2023-04-12T01:21:03.586Z,4.35
2023-04-12T01:23:48.002Z,6.93
2023-04-12T01:26:31.458Z,4.15
2023-04-12T01:29:04.575Z,7.53
2023-04-12T01:31:32.620Z,6.15
2023-04-12T01:34:00.522Z,3.42
2023-04-12T01:36:28.100Z,3.90
2023-04-12T01:38:55.920Z,5.30
2023-04-12T01:41:22.749Z,4.30
2023-04-12T01:43:49.415Z,3.90
2023-04-12T01:46:21.614Z,5.22
2023-04-12T01:48:49.964Z,4.93
2023-04-12T01:51:24.452Z,3.78
2023-04-12T01:53:59.230Z,3.75
2023-04-12T01:56:30.833Z,3.75
2023-04-12T01:58:58.859Z,5.85
2023-04-12T02:01:28.660Z,4.88
2023-04-12T02:03:57.499Z,3.85
2023-04-12T02:06:27.382Z,2.75
2023-04-12T02:08:58.211Z,4.28
2023-04-12T02:11:24.820Z,3.03
2023-04-12T02:13:51.399Z,3.92
2023-04-12T02:16:18.002Z,2.28
2023-04-12T02:18:45.963Z,3.90
2023-04-12T02:21:14.464Z,2.30
2023-04-12T02:23:41.007Z,2.22
2023-04-12T02:26:07.727Z,3.35
2023-04-12T02:28:34.281Z,4.35
2023-04-12T02:31:01.326Z,4.65
2023-04-12T02:33:30.292Z,4.10
2023-04-12T02:36:00.600Z,7.47
2023-04-12T02:38:27.163Z,2.33
2023-04-12T02:40:54.097Z,1.90
2023-04-12T02:43:20.940Z,4.47
2023-04-12T02:45:56.272Z,3.55
2023-04-12T02:48:23.237Z,1.75
2023-04-12T02:50:50.628Z,2.33
2023-04-12T02:53:22.190Z,3.05
2023-04-12T02:55:59.716Z,1.58
2023-04-12T02:58:26.553Z,4.78
2023-04-12T03:00:53.332Z,2.75
2023-04-12T03:03:26.689Z,1.33
2023-04-12T03:05:58.315Z,1.60
2023-04-12T03:08:31.669Z,2.95
2023-04-12T03:10:59.512Z,1.85
2023-04-12T03:13:30.061Z,4.30
2023-04-12T03:16:19.882Z,2.60
2023-04-12T03:18:49.165Z,1.83
2023-04-12T03:23:49.557Z,5.18
2023-04-12T03:26:21.049Z,3.03
2023-04-12T03:29:08.884Z,2.63
2023-04-12T03:31:37.005Z,1.73
2023-04-12T03:34:07.360Z,1.80
2023-04-12T03:36:36.360Z,1.75
2023-04-12T03:39:11.800Z,2.40
2023-04-12T03:41:39.623Z,4.13
2023-04-12T03:44:06.246Z,1.73
2023-04-12T03:46:34.827Z,2.05
2023-04-12T03:49:06.239Z,4.30
2023-04-12T03:51:33.741Z,2.35
2023-04-12T03:54:02.703Z,2.92
2023-04-12T03:56:35.169Z,2.47
2023-04-12T03:59:05.556Z,1.90
2023-04-12T04:01:32.133Z,1.05
2023-04-12T04:04:01.014Z,1.83
2023-04-12T04:06:30.936Z,2.03
2023-04-12T04:08:57.871Z,1.45
2023-04-12T04:11:25.636Z,0.88
2023-04-12T04:13:58.920Z,2.58
2023-04-12T04:16:25.746Z,1.42
2023-04-12T04:18:53.801Z,2.05
2023-04-12T04:21:22.131Z,2.47
2023-04-12T04:23:53.527Z,1.35
2023-04-12T04:26:20.498Z,2.03
2023-04-12T04:29:00.687Z,3.78
2023-04-12T04:31:31.285Z,1.80
2023-04-12T04:33:58.055Z,3.00
2023-04-12T04:36:30.050Z,1.58
2023-04-12T04:38:56.875Z,1.42
2023-04-12T04:41:35.380Z,1.95
2023-04-12T04:44:03.437Z,1.38
2023-04-12T04:46:31.823Z,3.08
2023-04-12T04:48:58.431Z,4.70
2023-04-12T04:51:25.134Z,1.00
2023-04-12T04:53:54.079Z,1.60
2023-04-12T04:56:20.796Z,1.92
2023-04-12T04:58:50.723Z,2.95
2023-04-12T05:01:20.193Z,0.77
2023-04-12T05:03:49.406Z,2.35
2023-04-12T05:06:17.980Z,2.25
2023-04-12T05:08:44.531Z,2.00
2023-04-12T05:11:13.836Z,1.58
2023-04-12T05:13:40.441Z,2.92
2023-04-12T05:16:07.829Z,1.60
2023-04-12T05:18:35.754Z,2.33
2023-04-12T05:21:03.020Z,1.77
2023-04-12T05:23:29.924Z,1.00
2023-04-12T05:25:56.576Z,1.65
2023-04-12T05:28:24.740Z,3.33
2023-04-12T05:30:51.294Z,2.45
2023-04-12T05:33:22.015Z,3.05
2023-04-12T05:35:51.553Z,2.55
2023-04-12T05:38:18.342Z,1.88
2023-04-12T05:40:48.802Z,2.38
2023-04-12T05:43:16.775Z,4.22
2023-04-12T05:45:43.654Z,1.40
2023-04-12T05:48:10.423Z,2.83
2023-04-12T05:50:37.635Z,1.50
2023-04-12T05:53:05.709Z,2.45
2023-04-12T05:55:35.926Z,1.48
2023-04-12T05:58:04.320Z,1.73
2023-04-12T06:00:31.142Z,1.92
2023-04-12T06:02:58.042Z,0.93
2023-04-12T06:05:24.867Z,2.85
2023-04-12T06:07:51.523Z,1.58
2023-04-12T06:10:19.860Z,2.67
2023-04-12T06:12:49.748Z,3.93
2023-04-12T06:15:16.401Z,3.20
2023-04-12T06:17:43.400Z,3.42
2023-04-12T06:20:11.322Z,2.15
2023-04-12T06:22:40.799Z,3.65
2023-04-12T06:25:08.345Z,1.70
2023-04-12T06:27:37.275Z,3.83
2023-04-12T06:30:04.724Z,2.38
2023-04-12T06:32:34.497Z,2.15
2023-04-12T06:35:01.057Z,2.13
2023-04-12T06:37:27.746Z,3.08
2023-04-12T06:39:54.312Z,2.78
2023-04-12T06:42:20.871Z,4.20
2023-04-12T06:44:48.880Z,2.35
2023-04-12T06:47:15.699Z,4.65
2023-04-12T06:49:42.310Z,2.67
2023-04-12T06:52:08.912Z,1.73
2023-04-12T06:54:36.586Z,3.03
2023-04-12T06:57:03.502Z,1.88
2023-04-12T06:59:30.162Z,4.13
2023-04-12T07:01:58.119Z,3.40
2023-04-12T07:04:24.743Z,2.97
2023-04-12T07:06:51.313Z,2.95
2023-04-12T07:09:17.854Z,3.53
2023-04-12T07:11:44.387Z,2.92
2023-04-12T07:14:11.040Z,3.83
2023-04-12T07:16:37.672Z,3.63
2023-04-12T07:19:05.700Z,2.20
2023-04-12T07:21:32.316Z,3.60
2023-04-12T07:23:58.878Z,3.53
2023-04-12T07:26:25.692Z,3.03
2023-04-12T07:28:52.400Z,2.40
2023-04-12T07:31:18.958Z,5.88
2023-04-12T07:33:45.604Z,3.03
2023-04-12T07:36:14.513Z,4.13
2023-04-12T07:38:41.211Z,5.35
2023-04-12T07:41:07.910Z,3.75
2023-04-12T07:43:34.490Z,3.67
2023-04-12T07:46:01.053Z,2.05
2023-04-12T07:48:27.670Z,2.25
2023-04-12T07:50:54.235Z,2.20
2023-04-12T07:53:23.689Z,1.75
2023-04-12T07:55:50.532Z,2.10
2023-04-12T07:58:18.145Z,2.15
2023-04-12T08:00:45.277Z,1.42
2023-04-12T08:03:12.685Z,3.55
2023-04-12T08:05:39.884Z,1.95
2023-04-12T08:08:06.920Z,0.88
2023-04-12T08:10:34.902Z,0.60
2023-04-12T08:13:01.552Z,1.20
2023-04-12T08:15:28.161Z,3.83
2023-04-12T08:17:54.983Z,4.50
2023-04-12T08:20:21.779Z,0.60
2023-04-12T08:22:49.083Z,1.70
2023-04-12T08:25:15.879Z,1.67
2023-04-12T08:27:44.092Z,2.78
2023-04-12T08:30:12.181Z,1.80
2023-04-12T08:32:39.129Z,2.85
2023-04-12T08:35:06.475Z,1.13
2023-04-12T08:37:33.296Z,3.08
2023-04-12T08:40:03.136Z,3.42
2023-04-12T08:42:30.743Z,1.67
2023-04-12T08:44:58.688Z,3.42
2023-04-12T08:47:25.362Z,4.10
2023-04-12T08:49:51.935Z,3.47
2023-04-12T08:52:18.656Z,5.45
2023-04-12T08:54:45.260Z,3.53
2023-04-12T08:57:12.981Z,4.28
2023-04-12T08:59:42.991Z,5.07
2023-04-12T09:02:14.012Z,7.90
2023-04-12T09:04:47.750Z,4.18
2023-04-12T09:07:15.217Z,5.22
2023-04-12T09:09:42.964Z,6.85
2023-04-12T09:12:10.787Z,6.72
2023-04-12T09:14:38.774Z,6.68
2023-04-12T09:17:05.665Z,5.40
2023-04-12T09:19:35.180Z,9.48
2023-04-12T09:22:02.807Z,5.10
2023-04-12T09:24:29.693Z,6.97
2023-04-12T09:27:03.377Z,5.45
2023-04-12T09:29:30.709Z,5.78
2023-04-12T09:32:01.668Z,5.95
2023-04-12T09:34:28.871Z,8.02
2023-04-12T09:36:57.234Z,7.68
2023-04-12T09:39:33.622Z,6.53
2023-04-12T09:42:18.038Z,4.25
2023-04-12T09:44:53.419Z,5.65
2023-04-12T09:47:20.503Z,3.50
2023-04-12T09:49:47.541Z,5.00
2023-04-12T09:52:15.834Z,5.07
2023-04-12T09:54:43.773Z,7.97
2023-04-12T09:57:11.152Z,6.63
2023-04-12T09:59:39.618Z,7.45
2023-04-12T10:02:11.495Z,5.28
2023-04-12T10:04:39.897Z,6.75
2023-04-12T10:07:06.727Z,12.68
2023-04-12T10:09:38.107Z,8.80
2023-04-12T10:12:05.549Z,7.10
2023-04-12T10:14:32.155Z,6.63
2023-04-12T10:17:00.734Z,9.18
2023-04-12T10:19:28.925Z,6.78
2023-04-12T10:21:56.140Z,8.27
2023-04-12T10:24:23.184Z,8.13
2023-04-12T10:26:52.054Z,11.85
2023-04-12T10:29:26.584Z,10.32
2023-04-12T10:31:53.825Z,15.18
2023-04-12T10:34:24.400Z,10.82
2023-04-12T10:36:51.767Z,7.90
2023-04-12T10:39:18.865Z,10.38
2023-04-12T10:42:20.882Z,10.82
2023-04-12T10:44:47.623Z,11.57
2023-04-12T10:47:14.440Z,18.35
2023-04-12T10:49:41.112Z,12.52
2023-04-12T10:52:12.890Z,13.30
2023-04-12T10:54:39.772Z,9.43
2023-04-12T10:57:26.023Z,13.40
2023-04-12T10:59:55.087Z,11.77
2023-04-12T11:02:21.880Z,8.45
2023-04-12T11:05:04.657Z,10.82
2023-04-12T11:07:53.280Z,17.15
2023-04-12T11:10:39.253Z,10.18
2023-04-12T11:13:06.881Z,11.35
2023-04-12T11:15:35.070Z,13.30
2023-04-12T11:18:06.892Z,14.18
2023-04-12T11:20:34.034Z,14.63
2023-04-12T11:23:02.866Z,17.52
2023-04-12T11:25:29.538Z,8.60
2023-04-12T11:27:56.202Z,11.15
2023-04-12T11:30:26.597Z,12.07
2023-04-12T11:32:54.890Z,16.08
2023-04-12T11:35:22.388Z,15.05
2023-04-12T11:37:49.047Z,12.93
2023-04-12T11:40:15.792Z,12.10
2023-04-12T11:42:42.552Z,12.45
2023-04-12T11:45:16.677Z,9.85
2023-04-12T11:47:44.542Z,9.98
2023-04-12T11:50:12.859Z,13.10
2023-04-12T11:52:39.584Z,13.63
2023-04-12T11:55:07.075Z,10.75
2023-04-12T11:57:34.706Z,9.88
2023-04-12T12:00:01.758Z,18.00
2023-04-12T12:02:33.015Z,13.32
2023-04-12T12:05:02.092Z,14.93
2023-04-12T12:07:30.770Z,9.68
2023-04-12T12:09:58.185Z,12.48
2023-04-12T12:12:24.843Z,7.82
2023-04-12T12:14:51.468Z,10.63
2023-04-12T12:17:18.058Z,17.60
2023-04-12T12:19:45.561Z,13.55
2023-04-12T12:22:14.325Z,8.77
2023-04-12T12:24:47.256Z,10.15
2023-04-12T12:27:17.574Z,7.30
2023-04-12T12:29:44.337Z,11.63
2023-04-12T12:32:11.828Z,8.07
2023-04-12T12:34:38.482Z,8.95
2023-04-12T12:37:08.351Z,10.00
2023-04-12T12:39:34.988Z,7.70
2023-04-12T12:42:03.193Z,10.43
2023-04-12T12:44:29.885Z,12.18
2023-04-12T12:47:06.615Z,10.90
2023-04-12T12:49:40.346Z,12.10
2023-04-12T12:52:06.954Z,10.50
2023-04-12T12:54:41.029Z,10.55
2023-04-12T12:57:09.482Z,10.25
2023-04-12T12:59:36.172Z,10.23
2023-04-12T13:02:02.872Z,6.82
2023-04-12T13:04:29.940Z,11.18
2023-04-12T13:06:56.712Z,6.85
2023-04-12T13:09:23.461Z,8.43
2023-04-12T13:11:50.244Z,10.20
2023-04-12T13:14:18.278Z,9.07
2023-04-12T13:16:44.910Z,8.73
2023-04-12T13:19:11.626Z,6.78
2023-04-12T13:21:38.380Z,8.90
2023-04-12T13:24:05.488Z,11.02
2023-04-12T13:26:32.140Z,9.25
2023-04-12T13:28:58.991Z,13.20
2023-04-12T13:31:27.161Z,8.50
2023-04-12T13:33:53.834Z,4.35
2023-04-12T13:36:20.657Z,9.23
2023-04-12T13:38:47.356Z,7.40
2023-04-12T13:41:14.004Z,8.38
2023-04-12T13:43:41.013Z,6.70
2023-04-12T13:46:07.642Z,4.75
2023-04-12T13:48:35.667Z,7.38
2023-04-12T13:51:02.200Z,5.07
2023-04-12T13:53:28.799Z,8.98
2023-04-12T13:55:55.337Z,5.35
2023-04-12T13:58:21.927Z,7.13
2023-04-12T14:00:48.616Z,5.82
2023-04-12T14:03:15.255Z,2.97
2023-04-12T14:05:43.192Z,5.05
2023-04-12T14:08:09.939Z,4.57
2023-04-12T14:10:36.578Z,2.75
2023-04-12T14:13:03.214Z,1.75
2023-04-12T14:15:30.129Z,2.08
2023-04-12T14:17:56.840Z,2.55
2023-04-12T14:20:23.524Z,3.28
2023-04-12T14:22:51.446Z,4.53
2023-04-12T14:25:18.321Z,3.22
2023-04-12T14:27:44.997Z,4.65
2023-04-12T14:30:13.360Z,3.95
2023-04-12T14:32:40.123Z,4.13
2023-04-12T14:35:07.241Z,2.63
2023-04-12T14:37:33.796Z,2.15
2023-04-12T14:40:01.876Z,3.72
2023-04-12T14:42:28.556Z,3.70
2023-04-12T14:44:55.186Z,2.58
2023-04-12T14:47:21.830Z,3.28
2023-04-12T14:49:48.455Z,3.33
2023-04-12T14:52:15.212Z,2.42
2023-04-12T14:54:41.982Z,1.60
2023-04-12T14:57:09.992Z,3.63
2023-04-12T14:59:36.900Z,3.15
2023-04-12T15:02:03.611Z,2.75
2023-04-12T15:04:30.400Z,2.15
2023-04-12T15:06:57.163Z,3.80
2023-04-12T15:09:23.927Z,2.20
2023-04-12T15:11:50.968Z,1.58
2023-04-12T15:14:19.058Z,2.45
2023-04-12T15:16:46.459Z,3.40
2023-04-12T15:19:18.870Z,1.63
2023-04-12T15:21:47.636Z,1.88
2023-04-12T15:24:14.194Z,2.60
2023-04-12T15:26:40.881Z,2.58
2023-04-12T15:29:08.196Z,5.53
2023-04-12T15:31:36.269Z,1.92
2023-04-12T15:34:03.000Z,4.43
2023-04-12T15:36:29.594Z,4.47
2023-04-12T15:38:56.203Z,3.17
2023-04-12T15:41:22.798Z,0.80
2023-04-12T15:43:49.405Z,3.30
2023-04-12T15:46:16.228Z,2.60
2023-04-12T15:48:44.308Z,0.70
2023-04-12T15:51:10.985Z,1.20
2023-04-12T15:53:37.596Z,1.63
2023-04-12T15:56:04.738Z,1.08
2023-04-12T15:58:31.375Z,0.80
2023-04-12T16:00:57.995Z,2.10
2023-04-12T16:03:24.657Z,1.63
2023-04-12T16:05:52.751Z,2.65
2023-04-12T16:08:19.761Z,1.80
2023-04-12T16:10:46.541Z,1.98
2023-04-12T16:13:13.206Z,3.40
2023-04-12T16:15:39.923Z,2.03
2023-04-12T16:18:07.582Z,1.92
2023-04-12T16:20:34.274Z,1.15
2023-04-12T16:23:02.256Z,5.10
2023-04-12T16:25:29.102Z,1.05
2023-04-12T16:27:56.198Z,1.80
2023-04-12T16:30:23.180Z,2.17
2023-04-12T16:32:50.134Z,2.45
2023-04-12T16:35:17.067Z,3.30
2023-04-12T16:37:44.826Z,3.47
2023-04-12T16:40:13.152Z,3.30
2023-04-12T16:42:40.538Z,1.95
2023-04-12T16:45:08.648Z,2.10
2023-04-12T16:47:35.600Z,3.28
2023-04-12T16:50:02.843Z,0.90
2023-04-12T16:52:29.530Z,1.40
2023-04-12T16:54:57.127Z,1.77
2023-04-12T16:57:25.252Z,1.80
2023-04-12T16:59:51.983Z,1.88
2023-04-12T17:02:18.746Z,2.22
2023-04-12T17:04:45.538Z,2.65
2023-04-12T17:07:12.245Z,3.05
2023-04-12T17:09:38.813Z,1.33
2023-04-12T17:12:06.693Z,2.03
2023-04-12T17:14:34.698Z,3.58
2023-04-12T17:17:02.022Z,2.78
2023-04-12T17:19:29.595Z,1.35
2023-04-12T17:21:56.206Z,3.90
2023-04-12T17:24:22.946Z,3.08
2023-04-12T17:26:49.595Z,1.58
2023-04-12T17:29:16.244Z,1.92
2023-04-12T17:31:44.421Z,0.90
2023-04-12T17:34:11.098Z,1.75
2023-04-12T17:36:37.795Z,3.17
2023-04-12T17:39:04.454Z,0.90
2023-04-12T17:41:31.550Z,3.20
2023-04-12T17:43:59.054Z,6.20
2023-04-12T17:46:26.102Z,6.95
2023-04-12T17:48:54.037Z,2.25
2023-04-12T17:51:20.849Z,3.25
2023-04-12T17:53:47.520Z,7.75
2023-04-12T17:56:14.146Z,5.20
2023-04-12T17:58:42.705Z,4.45
2023-04-12T18:01:09.293Z,2.33
2023-04-12T18:03:35.921Z,5.35
2023-04-12T18:06:04.303Z,4.15
2023-04-12T18:08:31.031Z,6.25
2023-04-12T18:10:57.620Z,3.28
2023-04-12T18:13:24.539Z,6.07
2023-04-12T18:15:51.281Z,4.78
2023-04-12T18:18:17.865Z,4.78
2023-04-12T18:20:44.502Z,3.15
2023-04-12T18:23:12.411Z,2.65
2023-04-12T18:25:39.032Z,3.28
2023-04-12T18:28:07.109Z,4.00
2023-04-12T18:30:33.840Z,4.68
2023-04-12T18:33:03.295Z,3.00
2023-04-12T18:35:30.773Z,3.65
2023-04-12T18:37:57.373Z,2.60
2023-04-12T18:40:25.289Z,4.68
2023-04-12T18:42:51.935Z,4.55
2023-04-12T18:45:18.663Z,4.95
2023-04-12T18:47:45.280Z,3.83
2023-04-12T18:50:11.968Z,2.42
2023-04-12T18:52:38.574Z,3.85
2023-04-12T18:55:06.225Z,3.63
2023-04-12T18:57:34.155Z,3.85
2023-04-12T19:00:00.761Z,3.40
2023-04-12T19:02:27.649Z,2.83
2023-04-12T19:04:54.791Z,5.13
2023-04-12T19:07:21.482Z,5.30
2023-04-12T19:09:48.095Z,2.70
2023-04-12T19:12:14.693Z,3.92
2023-04-12T19:14:42.657Z,6.72
2023-04-12T19:17:09.263Z,3.78
2023-04-12T19:19:36.065Z,2.92
2023-04-12T19:22:02.947Z,3.25
2023-04-12T19:24:29.541Z,4.38
2023-04-12T19:26:56.169Z,2.22
2023-04-12T19:29:22.806Z,1.83
2023-04-12T19:31:52.706Z,0.95
2023-04-12T19:34:20.840Z,3.55
2023-04-12T19:36:47.432Z,1.52
2023-04-12T19:39:14.027Z,4.65
2023-04-12T19:41:40.614Z,2.80
2023-04-12T19:44:07.280Z,0.57
2023-04-12T19:46:33.938Z,2.58
2023-04-12T19:49:01.853Z,4.43
2023-04-12T19:51:28.469Z,0.95
2023-04-12T19:53:55.133Z,1.90
2023-04-12T19:56:21.772Z,1.83
2023-04-12T19:58:48.500Z,1.90
2023-04-12T20:01:15.209Z,1.45
2023-04-12T20:03:41.990Z,1.10
2023-04-12T20:06:10.080Z,0.63
2023-04-12T20:08:37.216Z,1.05
2023-04-12T20:11:04.242Z,1.80
2023-04-12T20:13:30.857Z,0.73
2023-04-12T20:15:57.849Z,2.20
2023-04-12T20:18:24.778Z,1.58
2023-04-12T20:20:51.301Z,1.83
2023-04-12T20:23:19.236Z,0.80
2023-04-12T20:25:45.839Z,0.93
2023-04-12T20:28:12.454Z,2.10
2023-04-12T20:30:39.120Z,1.70
2023-04-12T20:33:05.874Z,1.48
2023-04-12T20:35:32.629Z,2.28
2023-04-12T20:37:59.249Z,1.80
2023-04-12T20:40:27.291Z,2.17
2023-04-12T20:42:54.107Z,1.33
2023-04-12T20:45:23.520Z,2.63
2023-04-12T20:47:50.269Z,3.65
2023-04-12T20:50:17.291Z,3.63
2023-04-12T20:52:43.949Z,2.50
2023-04-12T20:55:10.517Z,3.75
2023-04-12T20:57:38.455Z,5.25
2023-04-12T21:00:06.609Z,2.00
2023-04-12T21:02:33.405Z,2.33
2023-04-12T21:05:00.198Z,1.88
2023-04-12T21:07:26.799Z,1.65
2023-04-12T21:09:53.364Z,2.85
2023-04-12T21:12:19.928Z,2.97
2023-04-12T21:14:47.823Z,2.50
2023-04-12T21:17:14.415Z,2.88
2023-04-12T21:19:41.021Z,2.40
2023-04-12T21:22:08.028Z,1.55
2023-04-12T21:24:34.694Z,1.73
2023-04-12T21:27:01.331Z,3.03
2023-04-12T21:29:27.889Z,1.70
2023-04-12T21:31:55.905Z,1.85
2023-04-12T21:34:22.490Z,2.88
2023-04-12T21:36:49.016Z,3.75
2023-04-12T21:39:15.563Z,0.98
2023-04-12T21:41:42.125Z,2.47
2023-04-12T21:44:08.699Z,1.40
2023-04-12T21:46:41.559Z,1.13
2023-04-12T21:49:12.711Z,2.67
2023-04-12T21:51:39.426Z,1.58
2023-04-12T21:54:06.103Z,2.22
2023-04-12T21:56:32.806Z,1.83
2023-04-12T21:58:59.524Z,2.83
2023-04-12T22:01:26.377Z,1.85
2023-04-12T22:03:53.113Z,1.77
2023-04-12T22:06:21.363Z,4.13
2023-04-12T22:08:48.038Z,1.58
2023-04-12T22:11:14.587Z,2.08
2023-04-12T22:13:41.135Z,2.10
2023-04-12T22:16:09.326Z,1.98
2023-04-12T22:18:35.916Z,3.45
2023-04-12T22:21:02.501Z,1.63
2023-04-12T22:23:30.439Z,1.23
2023-04-12T22:25:57.003Z,1.63
2023-04-12T22:28:23.576Z,1.63
2023-04-12T22:30:50.207Z,1.27
2023-04-12T22:33:16.878Z,1.17
2023-04-12T22:35:43.467Z,1.73
2023-04-12T22:38:10.112Z,1.25
2023-04-12T22:40:38.468Z,2.17
2023-04-12T22:43:05.075Z,1.38
2023-04-12T22:45:31.709Z,1.13
2023-04-12T22:47:58.371Z,2.47
2023-04-12T22:50:25.189Z,3.08
2023-04-12T22:52:51.850Z,2.22
2023-04-12T22:55:18.622Z,1.13
2023-04-12T22:57:46.585Z,0.98
2023-04-12T23:00:16.515Z,3.28
2023-04-12T23:02:44.988Z,1.88
2023-04-12T23:05:11.808Z,2.55
2023-04-12T23:07:38.493Z,1.17
2023-04-12T23:10:06.369Z,1.27
2023-04-12T23:12:33.171Z,1.75
2023-04-12T23:15:01.107Z,2.75
2023-04-12T23:17:27.775Z,2.47
2023-04-12T23:19:54.373Z,1.63
2023-04-12T23:22:20.955Z,1.48
2023-04-12T23:24:47.561Z,1.33
2023-04-12T23:27:14.098Z,4.25
2023-04-12T23:29:40.859Z,4.07
2023-04-12T23:32:08.818Z,2.45
2023-04-12T23:34:35.353Z,1.63
2023-04-12T23:37:01.905Z,2.35
2023-04-12T23:39:28.525Z,5.53
2023-04-12T23:41:55.083Z,5.03
2023-04-12T23:44:21.711Z,3.67
2023-04-12T23:46:48.305Z,2.17
2023-04-12T23:49:16.236Z,3.58
2023-04-12T23:51:42.786Z,3.17
2023-04-12T23:54:09.380Z,3.22
2023-04-12T23:56:35.982Z,3.78
2023-04-12T23:59:02.635Z,3.33
